New Orleans, LA (70165)

5:57 AM CST on February 01, 2015 (GMT -0600)
APRSWXNET New Orleans LA US | Change Station
CLOSE
Current Station
Personal Weather Station
Location: New Orleans, LA
Elevation: 3 ft
Nearby Weather Stations

Elev 3 ft 29.97 °N, 90.09 °W | Updated 23 minutes ago

Overcast
Overcast
63 °F
Feels Like 63 °F
N
6
Wind Variable Wind from South
Gusts 9.0 mph

Today
High -- | Low -- °F
--% Chance of Precip.
Yesterday
High -- | Low -- °F
Precip. -- in
6:50 AM 5:37 PM
Waxing Gibbous, 94% visible
Pressure 30.00 in
Visibility 10.0 miles
Clouds Few 5500 ft
Overcast 9000 ft
Dew Point 57 °F
Humidity 82%
Rainfall 0.00 in
Snow Depth Not available.
UV 0 out of 12
Pollen 8.60 out of 12
Air Quality Not available.
Flu Activity Not available.
METAR KNEW 011053Z AUTO 13005KT 10SM FEW055 OVC090 17/12 A3002 RMK AO2 SLP159 T01720122 TSNO

More Conditions Fewer Conditions

Pressure 30.00 in
Visibility 10.0 miles
Clouds Few 5500 ft
Overcast 9000 ft
Dew Point 57 °F
Humidity 82%
Rainfall 0.00 in
Snow Depth Not available.
UV 0 out of 12
Pollen 8.60 out of 12
Air Quality Not available.
Flu Activity Not available.
METAR KNEW 011053Z AUTO 13005KT 10SM FEW055 OVC090 17/12 A3002 RMK AO2 SLP159 T01720122 TSNO

More Conditions Fewer Conditions

10-Day Weather Forecast

Almanac

Astronomy

Feb. 01, 2015 Rise Set
Actual Time
Civil Twilight
Nautical Twilight
Astronomical Twilight
Moon
Length of Visible Light
Length of Day
Tomorrow will be .
, % of the Moon is Illuminated

Today's Extremes

State Highs State Lows

Community

WunderPhotos

Upload Photos

1,792,346 photos uploaded!

WunderBlogs® & News

Nearby

Air Quality

  Air Quality AQ Index Pollutant
Not available.

Snow Depth

Station Depth Elevation

Earthquake Activity

City Distance Mag. Time & Date
Minimum magnitude displayed is 2.5.

Coastal Water Temperatures

Place Temperature

Nearby Weather Stations